createdAt,value
2022-11-29T00:01:38.669Z,36.03
2022-11-29T00:04:06.326Z,34.83
2022-11-29T00:06:35.671Z,38.23
2022-11-29T00:09:11.816Z,36.70
2022-11-29T00:12:01.784Z,35.00
2022-11-29T00:14:29.719Z,35.17
2022-11-29T00:17:02.199Z,40.70
2022-11-29T00:19:31.705Z,38.93
2022-11-29T00:22:00.115Z,35.00
2022-11-29T00:24:27.457Z,35.00
2022-11-29T00:26:54.593Z,35.87
2022-11-29T00:29:21.686Z,38.57
2022-11-29T00:31:48.921Z,36.40
2022-11-29T00:34:16.086Z,34.43
2022-11-29T00:36:43.305Z,33.87
2022-11-29T00:39:12.095Z,32.70
2022-11-29T00:41:39.747Z,36.00
2022-11-29T00:44:07.114Z,38.23
2022-11-29T00:46:34.532Z,38.03
2022-11-29T00:49:01.999Z,35.10
2022-11-29T00:51:29.106Z,37.10
2022-11-29T00:53:56.302Z,34.87
2022-11-29T00:56:23.498Z,37.37
2022-11-29T00:58:50.712Z,34.83
2022-11-29T01:01:18.161Z,36.13
2022-11-29T01:03:45.429Z,35.13
2022-11-29T01:06:15.687Z,32.90
2022-11-29T01:08:45.601Z,33.53
2022-11-29T01:11:22.221Z,36.50
2022-11-29T01:13:51.471Z,35.30
2022-11-29T01:16:18.833Z,35.47
2022-11-29T01:18:46.074Z,34.73
2022-11-29T01:21:16.959Z,33.27
2022-11-29T01:23:45.800Z,34.50
2022-11-29T01:26:26.078Z,34.90
2022-11-29T01:28:55.969Z,34.73
2022-11-29T01:31:37.513Z,32.37
2022-11-29T01:34:06.817Z,32.70
2022-11-29T01:36:35.309Z,33.50
2022-11-29T01:39:05.113Z,34.20
2022-11-29T01:41:34.902Z,35.23
2022-11-29T01:44:26.661Z,34.50
2022-11-29T01:46:54.773Z,33.53
2022-11-29T01:49:24.853Z,38.00
2022-11-29T01:52:09.587Z,33.03
2022-11-29T01:54:43.042Z,33.93
2022-11-29T01:57:11.496Z,36.20
2022-11-29T01:59:45.846Z,30.87
2022-11-29T02:02:23.802Z,31.93
2022-11-29T02:04:51.631Z,33.93
2022-11-29T02:07:19.109Z,34.87
2022-11-29T02:09:46.441Z,35.97
2022-11-29T02:12:44.808Z,35.00
2022-11-29T02:15:39.512Z,33.70
2022-11-29T02:18:37.114Z,34.07
2022-11-29T02:21:58.281Z,36.07
2022-11-29T02:25:16.348Z,32.87
2022-11-29T02:28:24.329Z,34.73
2022-11-29T02:31:28.713Z,33.20
2022-11-29T02:34:33.721Z,36.03
2022-11-29T02:37:11.379Z,34.67
2022-11-29T02:40:20.312Z,35.90
2022-11-29T02:43:52.809Z,35.77
2022-11-29T02:46:58.277Z,37.37
2022-11-29T02:49:50.315Z,35.20
2022-11-29T02:52:56.038Z,34.00
2022-11-29T02:55:53.906Z,38.97
2022-11-29T02:58:34.087Z,36.87
2022-11-29T03:01:25.013Z,38.03
2022-11-29T03:04:26.190Z,37.87
2022-11-29T03:07:41.661Z,40.00
2022-11-29T03:10:42.723Z,41.30
2022-11-29T03:13:23.932Z,45.80
2022-11-29T03:16:23.793Z,37.90
2022-11-29T03:19:20.965Z,39.00
2022-11-29T03:22:45.846Z,39.53
2022-11-29T03:25:37.414Z,38.40
2022-11-29T03:29:01.071Z,40.03
2022-11-29T03:32:02.337Z,39.33
2022-11-29T03:35:10.055Z,41.23
2022-11-29T03:38:05.703Z,43.87
2022-11-29T03:41:05.985Z,39.87
2022-11-29T03:43:52.742Z,45.33
2022-11-29T03:46:37.030Z,43.40
2022-11-29T03:49:13.762Z,41.53
2022-11-29T03:52:00.261Z,43.80
2022-11-29T03:54:49.977Z,38.50
2022-11-29T03:57:29.488Z,42.30
2022-11-29T04:00:10.906Z,43.30
2022-11-29T04:03:17.070Z,43.33
2022-11-29T04:06:08.567Z,44.70
2022-11-29T04:08:41.476Z,45.50
2022-11-29T04:11:54.810Z,43.00
2022-11-29T04:14:43.452Z,45.93
2022-11-29T04:17:32.497Z,44.87
2022-11-29T04:20:47.845Z,46.77
2022-11-29T04:23:51.269Z,45.83
2022-11-29T04:26:52.320Z,48.53
2022-11-29T04:29:37.738Z,49.30
2022-11-29T04:32:35.634Z,47.57
2022-11-29T04:35:18.808Z,44.80
2022-11-29T04:38:30.636Z,46.43
2022-11-29T04:41:32.898Z,44.00
2022-11-29T04:44:36.873Z,52.33
2022-11-29T04:47:21.310Z,48.30
2022-11-29T04:50:13.308Z,48.03
2022-11-29T04:53:28.595Z,46.57
2022-11-29T04:56:29.257Z,49.63
2022-11-29T04:59:30.071Z,48.00
2022-11-29T05:02:18.756Z,53.60
2022-11-29T05:05:08.189Z,47.50
2022-11-29T05:07:53.180Z,47.10
2022-11-29T05:10:29.339Z,51.27
2022-11-29T05:13:28.269Z,47.80
2022-11-29T05:16:41.200Z,51.30
2022-11-29T05:20:00.924Z,49.47
2022-11-29T05:22:59.157Z,51.87
2022-11-29T05:25:45.106Z,47.10
2022-11-29T05:28:20.422Z,49.93
2022-11-29T05:31:18.363Z,51.00
2022-11-29T05:33:57.489Z,54.37
2022-11-29T05:36:43.844Z,48.03
2022-11-29T05:40:01.858Z,51.03
2022-11-29T05:43:04.892Z,51.43
2022-11-29T05:45:44.814Z,50.93
2022-11-29T05:48:33.577Z,48.63
2022-11-29T05:51:31.089Z,53.53
2022-11-29T05:54:18.544Z,52.40
2022-11-29T05:57:21.738Z,52.97
2022-11-29T05:59:51.496Z,55.70
2022-11-29T06:02:52.043Z,51.47
2022-11-29T06:05:46.875Z,53.73
2022-11-29T06:08:18.828Z,55.20
2022-11-29T06:11:16.575Z,53.40
2022-11-29T06:14:05.661Z,54.73
2022-11-29T06:17:12.400Z,53.77
2022-11-29T06:19:49.102Z,57.27
2022-11-29T06:22:43.223Z,55.93
2022-11-29T06:25:37.377Z,56.27
2022-11-29T06:28:44.434Z,57.33
2022-11-29T06:31:38.299Z,53.10
2022-11-29T06:34:41.394Z,60.20
2022-11-29T06:37:35.731Z,58.63
2022-11-29T06:40:04.008Z,61.53
2022-11-29T06:42:31.386Z,59.33
2022-11-29T06:44:59.045Z,58.67
2022-11-29T06:48:11.106Z,53.63
2022-11-29T06:51:01.127Z,60.80
2022-11-29T06:53:33.991Z,53.73
2022-11-29T06:56:23.397Z,56.80
2022-11-29T06:58:52.211Z,58.23
2022-11-29T07:01:53.187Z,63.73
2022-11-29T07:05:16.657Z,58.73
2022-11-29T07:08:03.655Z,57.50
2022-11-29T07:10:38.183Z,56.93
2022-11-29T07:13:06.178Z,58.80
2022-11-29T07:15:36.129Z,61.50
2022-11-29T07:18:28.727Z,60.90
2022-11-29T07:21:52.383Z,62.13
2022-11-29T07:24:42.747Z,63.20
2022-11-29T07:27:23.222Z,59.17
2022-11-29T07:30:17.172Z,60.13
2022-11-29T07:33:20.691Z,57.00
2022-11-29T07:36:16.332Z,61.10
2022-11-29T07:39:09.107Z,59.30
2022-11-29T07:41:53.164Z,60.57
2022-11-29T07:44:44.589Z,55.93
2022-11-29T07:47:15.864Z,57.83
2022-11-29T07:49:43.096Z,62.07
2022-11-29T07:52:16.727Z,56.17
2022-11-29T07:54:44.550Z,60.40
2022-11-29T07:57:11.939Z,64.40
2022-11-29T08:00:04.415Z,60.60
2022-11-29T08:02:38.801Z,62.30
2022-11-29T08:05:07.005Z,62.87
2022-11-29T08:07:36.701Z,66.87
2022-11-29T08:10:08.114Z,63.63
2022-11-29T08:12:35.261Z,61.53
2022-11-29T08:15:02.714Z,63.37
2022-11-29T08:17:29.890Z,60.73
2022-11-29T08:20:00.018Z,60.47
2022-11-29T08:22:30.900Z,62.63
2022-11-29T08:24:58.495Z,60.77
2022-11-29T08:27:26.117Z,105.80
2022-11-29T08:29:53.275Z,71.67
2022-11-29T08:32:20.355Z,58.37
2022-11-29T08:34:47.841Z,61.57
2022-11-29T08:37:15.094Z,64.03
2022-11-29T08:39:42.185Z,62.10
2022-11-29T08:42:09.546Z,59.23
2022-11-29T08:44:36.640Z,60.83
2022-11-29T08:47:22.864Z,60.10
2022-11-29T08:50:02.219Z,61.93
2022-11-29T08:52:50.777Z,59.77
2022-11-29T08:55:22.782Z,61.20
2022-11-29T08:58:08.975Z,60.30
2022-11-29T09:00:36.876Z,61.57
2022-11-29T09:03:28.455Z,62.20
2022-11-29T09:05:56.235Z,62.33
2022-11-29T09:08:23.437Z,56.83
2022-11-29T09:10:51.272Z,62.60
2022-11-29T09:13:18.425Z,59.67
2022-11-29T09:15:46.309Z,62.60
2022-11-29T09:18:13.668Z,64.07
2022-11-29T09:20:45.794Z,61.17
2022-11-29T09:23:13.555Z,63.77
2022-11-29T09:25:40.827Z,63.13
2022-11-29T09:28:08.581Z,61.73
2022-11-29T09:30:40.272Z,64.13
2022-11-29T09:33:07.371Z,62.27
2022-11-29T09:35:35.159Z,64.67
2022-11-29T09:38:02.238Z,55.00
2022-11-29T09:40:48.634Z,63.73
2022-11-29T09:43:38.822Z,59.03
2022-11-29T09:46:29.820Z,58.90
2022-11-29T09:49:38.668Z,58.93
2022-11-29T09:52:21.125Z,56.33
2022-11-29T09:55:00.608Z,58.03
2022-11-29T09:57:31.256Z,57.87
2022-11-29T10:00:06.737Z,57.33
2022-11-29T10:02:45.794Z,55.43
2022-11-29T10:05:49.960Z,78.67
2022-11-29T10:08:51.900Z,59.93
2022-11-29T10:11:46.303Z,58.20
2022-11-29T10:14:23.449Z,54.10
2022-11-29T10:17:24.616Z,55.60
2022-11-29T10:19:58.821Z,59.47
2022-11-29T10:22:42.853Z,55.47
2022-11-29T10:25:23.704Z,52.93
2022-11-29T10:27:54.658Z,51.37
2022-11-29T10:30:23.662Z,50.87
2022-11-29T10:32:58.477Z,50.50
2022-11-29T10:35:29.090Z,53.40
2022-11-29T10:40:55.301Z,51.73
2022-11-29T10:43:24.185Z,52.17
2022-11-29T10:45:56.609Z,47.70
2022-11-29T10:48:34.226Z,50.00
2022-11-29T10:51:02.195Z,48.30
2022-11-29T10:53:37.724Z,49.97
2022-11-29T10:56:19.079Z,49.47
2022-11-29T10:59:09.334Z,49.23
2022-11-29T11:01:41.888Z,52.93
2022-11-29T11:04:36.573Z,49.93
2022-11-29T11:07:06.800Z,48.77
2022-11-29T11:09:50.074Z,51.97
2022-11-29T11:12:23.324Z,48.60
2022-11-29T11:14:53.780Z,49.17
2022-11-29T11:17:30.196Z,66.07
2022-11-29T11:20:19.101Z,50.93
2022-11-29T11:23:02.837Z,49.33
2022-11-29T11:25:39.582Z,46.77
2022-11-29T11:28:26.801Z,48.60
2022-11-29T11:31:02.406Z,43.90
2022-11-29T11:33:37.874Z,46.30
2022-11-29T11:36:28.152Z,47.53
2022-11-29T11:39:13.755Z,44.30
2022-11-29T11:42:06.683Z,48.13
2022-11-29T11:44:49.995Z,46.07
2022-11-29T11:47:21.982Z,47.80
2022-11-29T11:50:04.532Z,43.50
2022-11-29T11:52:54.161Z,45.97
2022-11-29T11:55:21.436Z,44.67
2022-11-29T11:58:13.063Z,42.83
2022-11-29T12:01:14.783Z,41.23
2022-11-29T12:04:06.260Z,46.80
2022-11-29T12:06:59.917Z,43.87
2022-11-29T12:09:27.681Z,47.23
2022-11-29T12:12:08.174Z,43.10
2022-11-29T12:15:06.061Z,44.30
2022-11-29T12:17:57.504Z,42.00
2022-11-29T12:20:42.408Z,45.27
2022-11-29T12:23:12.357Z,44.40
2022-11-29T12:25:52.652Z,46.43
2022-11-29T12:28:22.637Z,42.20
2022-11-29T12:31:28.893Z,41.10
2022-11-29T12:34:43.019Z,42.90
2022-11-29T12:37:32.317Z,45.50
2022-11-29T12:40:35.527Z,41.60
2022-11-29T12:43:31.536Z,45.30
2022-11-29T12:46:24.104Z,44.60
2022-11-29T12:49:27.082Z,42.80
2022-11-29T12:52:25.587Z,45.10
2022-11-29T12:55:27.117Z,46.63
2022-11-29T12:58:48.825Z,44.63
2022-11-29T13:01:28.238Z,44.30
2022-11-29T13:04:20.058Z,42.37
2022-11-29T13:07:06.698Z,48.30
2022-11-29T13:10:02.553Z,46.80
2022-11-29T13:12:44.024Z,44.50
2022-11-29T13:16:01.277Z,49.27
2022-11-29T13:18:55.361Z,45.97
2022-11-29T13:22:05.897Z,41.73
2022-11-29T13:24:42.900Z,47.47
2022-11-29T13:27:21.195Z,47.40
2022-11-29T13:29:49.014Z,47.13
2022-11-29T13:32:37.689Z,64.37
2022-11-29T13:35:21.128Z,48.80
2022-11-29T13:38:16.530Z,48.50
2022-11-29T13:40:58.628Z,48.83
2022-11-29T13:44:19.889Z,46.53
2022-11-29T13:46:53.883Z,47.67
2022-11-29T13:49:42.252Z,51.03
2022-11-29T13:52:40.866Z,46.03
2022-11-29T13:55:11.594Z,48.47
2022-11-29T14:00:43.750Z,45.87
2022-11-29T14:04:04.750Z,49.13
2022-11-29T14:06:36.021Z,42.17
2022-11-29T14:09:26.903Z,46.40
2022-11-29T14:12:01.183Z,47.20
2022-11-29T14:14:38.074Z,48.37
2022-11-29T14:17:47.141Z,47.13
2022-11-29T14:20:23.335Z,48.43
2022-11-29T14:23:05.683Z,46.60
2022-11-29T14:25:51.509Z,47.90
2022-11-29T14:28:22.173Z,48.07
2022-11-29T14:30:58.472Z,46.40
2022-11-29T14:33:44.443Z,47.47
2022-11-29T14:36:33.224Z,50.33
2022-11-29T14:39:27.854Z,46.00
2022-11-29T14:42:20.117Z,44.70
2022-11-29T14:44:52.444Z,51.63
2022-11-29T14:47:25.804Z,45.53
2022-11-29T14:49:55.900Z,50.57
2022-11-29T14:52:41.060Z,47.73
2022-11-29T14:55:34.015Z,46.53
2022-11-29T14:58:01.214Z,46.60
2022-11-29T15:00:29.686Z,44.27
2022-11-29T15:03:33.963Z,47.27
2022-11-29T15:06:15.351Z,49.40
2022-11-29T15:08:55.953Z,48.83
2022-11-29T15:11:53.097Z,50.40
2022-11-29T15:14:32.154Z,50.90
2022-11-29T15:17:22.276Z,46.07
2022-11-29T15:20:06.307Z,45.13
2022-11-29T15:22:52.769Z,52.30
2022-11-29T15:25:24.979Z,48.77
2022-11-29T15:27:54.222Z,47.07
2022-11-29T15:30:42.275Z,53.93
2022-11-29T15:33:21.947Z,50.63
2022-11-29T15:36:04.609Z,49.60
2022-11-29T15:38:49.843Z,54.33
2022-11-29T15:41:26.830Z,50.20
2022-11-29T15:43:59.235Z,52.20
2022-11-29T15:46:33.134Z,59.73
2022-11-29T15:49:27.417Z,48.63
2022-11-29T15:52:00.350Z,46.57
2022-11-29T15:54:55.006Z,48.70
2022-11-29T15:57:30.253Z,53.00
2022-11-29T16:00:12.254Z,50.67
2022-11-29T16:02:51.728Z,48.70
2022-11-29T16:05:50.304Z,49.37
2022-11-29T16:08:20.796Z,45.20
2022-11-29T16:10:52.960Z,49.60
2022-11-29T16:13:39.887Z,49.00
2022-11-29T16:16:10.235Z,44.73
2022-11-29T16:18:40.953Z,49.87
2022-11-29T16:21:31.125Z,49.43
2022-11-29T16:23:59.178Z,57.13
2022-11-29T16:26:36.263Z,50.67
2022-11-29T16:29:03.890Z,52.60
2022-11-29T16:31:37.265Z,53.63
2022-11-29T16:34:30.657Z,148.90
2022-11-29T16:37:08.673Z,52.50
2022-11-29T16:39:38.353Z,56.37
2022-11-29T16:42:25.840Z,55.47
2022-11-29T16:45:02.532Z,55.63
2022-11-29T16:47:46.486Z,58.17
2022-11-29T16:50:22.709Z,61.37
2022-11-29T16:52:56.165Z,55.70
2022-11-29T16:55:24.493Z,55.80
2022-11-29T16:57:52.241Z,61.87
2022-11-29T17:00:33.519Z,54.87
2022-11-29T17:03:01.023Z,58.03
2022-11-29T17:05:28.810Z,56.87
2022-11-29T17:07:56.421Z,56.57
2022-11-29T17:10:25.817Z,59.17
2022-11-29T17:12:53.250Z,58.87
2022-11-29T17:15:20.443Z,56.37
2022-11-29T17:17:47.841Z,57.73
2022-11-29T17:20:15.128Z,58.90
2022-11-29T17:22:42.303Z,59.63
2022-11-29T17:25:10.896Z,61.23
2022-11-29T17:27:38.125Z,56.33
2022-11-29T17:30:11.350Z,52.00
2022-11-29T17:32:38.652Z,59.07
2022-11-29T17:35:06.216Z,52.83
2022-11-29T17:37:33.500Z,49.33
2022-11-29T17:40:00.851Z,55.00
2022-11-29T17:42:28.024Z,54.83
2022-11-29T17:44:55.237Z,53.60
2022-11-29T17:47:22.422Z,50.07
2022-11-29T17:49:49.601Z,54.17
2022-11-29T17:52:16.947Z,51.53
2022-11-29T17:54:44.152Z,52.97
2022-11-29T17:57:11.328Z,52.37
2022-11-29T17:59:38.590Z,54.07
2022-11-29T18:02:06.083Z,54.33
2022-11-29T18:04:33.664Z,49.47
2022-11-29T18:07:01.556Z,57.57
2022-11-29T18:09:28.685Z,54.77
2022-11-29T18:11:56.070Z,56.10
2022-11-29T18:14:25.269Z,53.23
2022-11-29T18:16:52.735Z,56.80
2022-11-29T18:19:22.309Z,52.83
2022-11-29T18:21:50.300Z,50.40
2022-11-29T18:24:18.462Z,53.33
2022-11-29T18:26:46.109Z,54.80
2022-11-29T18:29:13.323Z,55.97
2022-11-29T18:31:44.431Z,56.63
2022-11-29T18:34:13.994Z,55.47
2022-11-29T18:36:45.200Z,56.80
2022-11-29T18:39:18.661Z,58.43
2022-11-29T18:41:50.183Z,56.60
2022-11-29T18:44:20.283Z,57.23
2022-11-29T18:46:47.918Z,55.97
2022-11-29T18:49:17.479Z,54.80
2022-11-29T18:51:46.290Z,58.97
2022-11-29T18:54:16.391Z,56.50
2022-11-29T18:56:45.054Z,55.43
2022-11-29T18:59:16.890Z,56.27
2022-11-29T19:01:47.779Z,59.60
2022-11-29T19:04:19.766Z,70.40
2022-11-29T19:06:47.646Z,56.73
2022-11-29T19:09:19.354Z,56.70
2022-11-29T19:11:48.603Z,56.10
2022-11-29T19:14:15.760Z,60.33
2022-11-29T19:16:45.893Z,53.47
2022-11-29T19:19:13.206Z,55.97
2022-11-29T19:21:41.371Z,58.50
2022-11-29T19:24:14.577Z,58.87
2022-11-29T19:26:44.916Z,55.07
2022-11-29T19:29:13.807Z,57.13
2022-11-29T19:31:41.658Z,58.40
2022-11-29T19:34:08.806Z,55.53
2022-11-29T19:36:42.766Z,58.13
2022-11-29T19:39:13.490Z,64.37
2022-11-29T19:41:44.309Z,59.70
2022-11-29T19:44:12.541Z,60.80
2022-11-29T19:46:48.416Z,61.97
2022-11-29T19:49:17.170Z,63.83
2022-11-29T19:51:44.678Z,59.30
2022-11-29T19:54:12.251Z,60.70
2022-11-29T19:56:39.677Z,61.40
2022-11-29T19:59:08.905Z,62.40
2022-11-29T20:01:41.830Z,63.63
2022-11-29T20:04:12.483Z,60.47
2022-11-29T20:06:40.253Z,62.70
2022-11-29T20:09:13.428Z,56.87
2022-11-29T20:11:40.535Z,61.93
2022-11-29T20:14:08.774Z,61.47
2022-11-29T20:16:38.119Z,66.50
2022-11-29T20:19:14.626Z,61.13
2022-11-29T20:21:52.262Z,61.33
2022-11-29T20:24:22.217Z,61.67
2022-11-29T20:26:49.963Z,58.27
2022-11-29T20:29:17.859Z,58.60
2022-11-29T20:31:50.247Z,65.70
2022-11-29T20:34:19.860Z,62.13
2022-11-29T20:37:27.070Z,61.70
2022-11-29T20:40:05.116Z,58.73
2022-11-29T20:43:06.020Z,59.47
2022-11-29T20:45:33.480Z,59.43
2022-11-29T20:48:22.830Z,57.27
2022-11-29T20:51:10.653Z,62.23
2022-11-29T20:53:43.260Z,59.20
2022-11-29T20:56:11.958Z,59.33
2022-11-29T20:58:39.900Z,59.03
2022-11-29T21:01:07.665Z,61.97
2022-11-29T21:03:35.037Z,64.47
2022-11-29T21:06:05.081Z,61.60
2022-11-29T21:08:32.633Z,62.00
2022-11-29T21:11:06.725Z,62.63
2022-11-29T21:13:34.660Z,62.53
2022-11-29T21:16:02.582Z,61.77
2022-11-29T21:18:31.212Z,61.67
2022-11-29T21:21:51.388Z,67.47
2022-11-29T21:24:46.027Z,65.13
2022-11-29T21:27:18.722Z,59.57
2022-11-29T21:29:46.068Z,60.23
2022-11-29T21:32:25.265Z,62.83
2022-11-29T21:34:53.087Z,61.93
2022-11-29T21:37:26.232Z,59.97
2022-11-29T21:39:55.606Z,68.67
2022-11-29T21:42:22.817Z,60.03
2022-11-29T21:44:49.949Z,62.37
2022-11-29T21:47:17.177Z,61.13
2022-11-29T21:49:45.020Z,64.70
2022-11-29T21:52:14.415Z,64.63
2022-11-29T21:54:45.332Z,62.97
2022-11-29T21:57:12.791Z,64.67
2022-11-29T21:59:40.005Z,59.80
2022-11-29T22:02:07.591Z,61.83
2022-11-29T22:04:34.798Z,62.60
2022-11-29T22:07:01.957Z,64.37
2022-11-29T22:09:29.485Z,65.67
2022-11-29T22:11:58.931Z,57.17
2022-11-29T22:14:26.071Z,64.67
2022-11-29T22:17:01.545Z,65.90
2022-11-29T22:19:35.107Z,60.90
2022-11-29T22:22:05.800Z,61.33
2022-11-29T22:24:36.706Z,62.87
2022-11-29T22:27:04.331Z,59.70
2022-11-29T22:29:31.526Z,60.50
2022-11-29T22:31:59.561Z,61.87
2022-11-29T22:34:27.504Z,60.70
2022-11-29T22:36:55.583Z,57.83
2022-11-29T22:39:24.130Z,63.03
2022-11-29T22:41:54.714Z,61.37
2022-11-29T22:44:25.738Z,60.73
2022-11-29T22:46:52.994Z,66.23
2022-11-29T22:49:20.249Z,59.47
2022-11-29T22:51:47.534Z,58.13
2022-11-29T22:54:17.960Z,57.73
2022-11-29T22:56:45.937Z,56.57
2022-11-29T22:59:13.282Z,62.63
2022-11-29T23:01:41.701Z,59.20
2022-11-29T23:04:10.895Z,62.47
2022-11-29T23:06:45.792Z,62.73
2022-11-29T23:09:21.253Z,61.03
2022-11-29T23:11:55.769Z,58.67
2022-11-29T23:14:24.231Z,56.53
2022-11-29T23:16:52.131Z,56.00
2022-11-29T23:19:20.029Z,65.23
2022-11-29T23:21:47.361Z,56.03
2022-11-29T23:24:15.798Z,60.87
2022-11-29T23:26:46.418Z,63.37
2022-11-29T23:29:17.639Z,59.47
2022-11-29T23:31:46.579Z,58.00
2022-11-29T23:34:14.112Z,67.00
2022-11-29T23:36:41.697Z,60.57
2022-11-29T23:39:08.910Z,60.33
2022-11-29T23:41:36.775Z,65.17
2022-11-29T23:44:09.267Z,60.30
2022-11-29T23:46:36.734Z,65.77
2022-11-29T23:49:04.273Z,59.43
2022-11-29T23:51:31.716Z,59.13
2022-11-29T23:53:58.807Z,58.83
2022-11-29T23:56:26.335Z,65.17
2022-11-29T23:58:53.504Z,59.70
